createdAt,value
2019-03-06T00:02:32.355Z,8.43
2019-03-06T00:06:36.262Z,8.53
2019-03-06T00:10:39.584Z,11.13
2019-03-06T00:14:42.966Z,12.03
2019-03-06T00:18:46.714Z,12.97
2019-03-06T00:22:50.247Z,9.87
2019-03-06T00:26:54.143Z,10.70
2019-03-06T00:30:58.127Z,9.23
2019-03-06T00:35:03.732Z,9.77
2019-03-06T00:39:07.530Z,9.13
2019-03-06T00:43:10.934Z,8.90
2019-03-06T00:47:14.619Z,9.07
2019-03-06T00:51:17.933Z,10.33
2019-03-06T00:55:21.301Z,7.73
2019-03-06T00:59:27.230Z,8.13
2019-03-06T01:03:30.538Z,9.37
2019-03-06T01:07:33.924Z,8.70
2019-03-06T01:11:37.822Z,8.63
2019-03-06T01:15:41.743Z,7.80
2019-03-06T01:19:45.096Z,8.37
2019-03-06T01:23:48.534Z,7.20
2019-03-06T01:27:51.898Z,7.17
2019-03-06T01:31:55.254Z,10.00
2019-03-06T01:36:13.600Z,16.73
2019-03-06T01:40:28.881Z,7.93
2019-03-06T01:44:37.274Z,16.63
2019-03-06T01:48:41.610Z,11.10
2019-03-06T01:52:44.893Z,8.83
2019-03-06T01:56:48.183Z,9.73
2019-03-06T02:00:51.970Z,9.07
2019-03-06T02:04:55.266Z,11.10
2019-03-06T02:08:58.842Z,10.53
2019-03-06T02:13:02.130Z,12.57
2019-03-06T02:17:05.435Z,11.20
2019-03-06T02:21:08.902Z,11.23
2019-03-06T02:25:12.868Z,13.67
2019-03-06T02:29:17.318Z,12.43
2019-03-06T02:33:21.047Z,14.80
2019-03-06T02:37:24.339Z,12.50
2019-03-06T02:41:28.706Z,15.27
2019-03-06T02:45:32.434Z,14.17
2019-03-06T02:49:36.159Z,16.30
2019-03-06T02:53:39.460Z,16.30
2019-03-06T02:57:48.691Z,15.80
2019-03-06T03:01:56.727Z,15.13
2019-03-06T03:06:04.140Z,15.30
2019-03-06T03:10:08.274Z,17.40
2019-03-06T03:14:11.588Z,18.43
2019-03-06T03:18:15.303Z,18.90
2019-03-06T03:22:19.376Z,23.90
2019-03-06T03:26:22.674Z,20.57
2019-03-06T03:30:26.566Z,16.93
2019-03-06T03:34:30.298Z,18.77
2019-03-06T03:38:33.576Z,19.40
2019-03-06T03:42:37.126Z,24.03
2019-03-06T03:46:40.424Z,20.20
2019-03-06T03:50:44.156Z,18.23
2019-03-06T03:54:47.831Z,23.67
2019-03-06T03:58:51.875Z,20.40
2019-03-06T04:02:55.163Z,25.37
2019-03-06T04:06:58.461Z,23.90
2019-03-06T04:11:02.083Z,30.40
2019-03-06T04:15:06.698Z,24.50
2019-03-06T04:19:10.715Z,23.60
2019-03-06T04:23:14.519Z,22.20
2019-03-06T04:27:17.815Z,26.17
2019-03-06T04:31:21.110Z,23.37
2019-03-06T04:35:24.850Z,24.57
2019-03-06T04:39:28.585Z,29.77
2019-03-06T04:43:31.883Z,29.47
2019-03-06T04:47:35.887Z,31.90
2019-03-06T04:51:39.198Z,26.33
2019-03-06T04:55:42.742Z,32.67
2019-03-06T04:59:46.034Z,32.17
2019-03-06T05:03:49.334Z,34.83
2019-03-06T05:07:52.698Z,36.73
2019-03-06T05:11:56.541Z,36.97
2019-03-06T05:15:59.822Z,32.30
2019-03-06T05:20:03.555Z,31.77
2019-03-06T05:24:07.657Z,33.17
2019-03-06T05:28:11.585Z,34.97
2019-03-06T05:32:49.719Z,34.40
2019-03-06T05:37:30.799Z,35.43
2019-03-06T05:41:34.098Z,30.10
2019-03-06T05:45:37.409Z,28.60
2019-03-06T05:49:40.691Z,29.20
2019-03-06T05:53:43.996Z,29.93
2019-03-06T05:57:47.290Z,26.63
2019-03-06T06:01:50.602Z,26.07
2019-03-06T06:05:54.692Z,30.33
2019-03-06T06:09:57.982Z,29.07
2019-03-06T06:14:01.374Z,27.37
2019-03-06T06:18:04.674Z,27.47
2019-03-06T06:22:24.130Z,25.20
2019-03-06T06:26:27.422Z,25.40
2019-03-06T06:30:30.894Z,24.57
2019-03-06T06:34:34.183Z,22.27
2019-03-06T06:38:37.891Z,23.77
2019-03-06T06:42:41.178Z,19.53
2019-03-06T06:46:44.462Z,20.13
2019-03-06T06:51:04.315Z,25.60
2019-03-06T06:55:20.933Z,22.37
2019-03-06T06:59:26.714Z,20.40
2019-03-06T07:04:12.378Z,22.57
2019-03-06T07:08:41.059Z,21.90
2019-03-06T07:13:01.134Z,20.70
2019-03-06T07:17:39.174Z,25.17
2019-03-06T07:21:53.802Z,18.33
2019-03-06T07:26:08.270Z,19.60
2019-03-06T07:30:21.020Z,19.17
2019-03-06T07:34:35.967Z,21.13
2019-03-06T07:38:39.271Z,20.23
2019-03-06T07:43:00.798Z,21.40
2019-03-06T07:47:29.946Z,23.33
2019-03-06T07:52:02.163Z,17.37
2019-03-06T07:56:17.982Z,29.63
2019-03-06T08:00:21.283Z,20.10
2019-03-06T08:04:24.583Z,17.67
2019-03-06T08:08:28.123Z,18.00
2019-03-06T08:12:43.713Z,17.30
2019-03-06T08:16:52.662Z,17.00
2019-03-06T08:21:15.778Z,16.90
2019-03-06T08:25:28.218Z,13.63
2019-03-06T08:29:31.510Z,15.60
2019-03-06T08:33:35.494Z,20.37
2019-03-06T08:37:38.775Z,18.10
2019-03-06T08:41:42.779Z,16.77
2019-03-06T08:46:23.719Z,17.63
2019-03-06T08:50:32.578Z,12.40
2019-03-06T08:55:11.133Z,13.57
2019-03-06T08:59:30.126Z,15.20
2019-03-06T09:03:55.410Z,12.80
2019-03-06T09:08:16.178Z,15.60
2019-03-06T09:12:48.150Z,11.70
2019-03-06T09:17:03.928Z,13.60
2019-03-06T09:21:24.242Z,14.90
2019-03-06T09:25:53.191Z,11.63
2019-03-06T09:30:16.005Z,9.20
2019-03-06T09:34:35.810Z,11.63
2019-03-06T09:38:48.744Z,12.13
2019-03-06T09:43:03.102Z,9.07
2019-03-06T09:47:22.586Z,8.80
2019-03-06T09:51:35.780Z,9.97
2019-03-06T09:55:57.494Z,8.80
2019-03-06T10:00:29.526Z,8.90
2019-03-06T10:04:51.149Z,8.00
2019-03-06T10:09:05.670Z,11.80
2019-03-06T10:13:28.146Z,6.90
2019-03-06T10:17:36.811Z,14.73
2019-03-06T10:21:40.098Z,6.70
2019-03-06T10:25:43.460Z,11.43
2019-03-06T10:29:46.762Z,7.80
2019-03-06T10:33:50.511Z,11.77
2019-03-06T10:37:53.806Z,5.67
2019-03-06T10:41:57.707Z,8.90
2019-03-06T10:46:01.488Z,5.90
2019-03-06T10:50:06.773Z,8.20
2019-03-06T10:54:10.144Z,7.40
2019-03-06T10:58:13.478Z,6.50
2019-03-06T11:02:16.842Z,8.83
2019-03-06T11:06:20.510Z,8.53
2019-03-06T11:10:25.760Z,6.50
2019-03-06T11:14:29.726Z,9.67
2019-03-06T11:18:33.603Z,11.37
2019-03-06T11:22:37.570Z,8.17
2019-03-06T11:26:41.654Z,10.33
2019-03-06T11:30:50.663Z,6.80
2019-03-06T11:34:53.957Z,14.43
2019-03-06T11:38:57.270Z,5.80
2019-03-06T11:43:00.534Z,6.03
2019-03-06T11:47:04.006Z,10.17
2019-03-06T11:51:07.882Z,7.43
2019-03-06T11:55:11.262Z,8.17
2019-03-06T11:59:14.802Z,7.30
2019-03-06T12:03:20.021Z,9.87
2019-03-06T12:07:23.577Z,10.00
2019-03-06T12:11:27.458Z,6.53
2019-03-06T12:15:30.818Z,5.13
2019-03-06T12:19:34.559Z,5.57
2019-03-06T12:23:39.351Z,4.33
2019-03-06T12:27:42.806Z,6.17
2019-03-06T12:31:46.110Z,6.00
2019-03-06T12:35:49.929Z,8.73
2019-03-06T12:39:53.213Z,6.67
2019-03-06T12:43:57.236Z,4.33
2019-03-06T12:48:01.519Z,9.27
2019-03-06T12:52:05.402Z,8.20
2019-03-06T12:56:09.199Z,6.70
2019-03-06T13:00:20.134Z,6.50
2019-03-06T13:04:23.863Z,7.60
2019-03-06T13:08:27.182Z,5.10
2019-03-06T13:12:31.367Z,11.57
2019-03-06T13:16:34.660Z,8.80
2019-03-06T13:20:38.617Z,4.87
2019-03-06T13:24:42.026Z,5.20
2019-03-06T13:28:47.078Z,4.40
2019-03-06T13:33:18.926Z,6.40
2019-03-06T13:37:22.294Z,8.70
2019-03-06T13:41:25.758Z,6.90
2019-03-06T13:45:29.227Z,6.13
2019-03-06T13:49:33.279Z,4.97
2019-03-06T13:53:36.643Z,8.00
2019-03-06T13:57:40.116Z,8.23
2019-03-06T14:01:44.436Z,6.30
2019-03-06T14:05:47.757Z,4.63
2019-03-06T14:09:52.030Z,8.43
2019-03-06T14:13:55.372Z,4.00
2019-03-06T14:17:59.238Z,5.33
2019-03-06T14:22:02.638Z,7.53
2019-03-06T14:26:07.309Z,4.07
2019-03-06T14:30:11.262Z,4.70
2019-03-06T14:34:15.160Z,8.40
2019-03-06T14:38:18.468Z,7.23
2019-03-06T14:42:21.759Z,4.33
2019-03-06T14:46:25.079Z,4.40
2019-03-06T14:50:28.367Z,6.50
2019-03-06T14:54:32.170Z,9.43
2019-03-06T14:58:35.454Z,6.60
2019-03-06T15:02:39.403Z,5.00
2019-03-06T15:06:43.306Z,4.70
2019-03-06T15:10:46.586Z,7.30
2019-03-06T15:14:49.963Z,6.53
2019-03-06T15:18:53.238Z,3.70
2019-03-06T15:22:56.575Z,8.87
2019-03-06T15:26:59.894Z,7.37
2019-03-06T15:31:03.702Z,4.33
2019-03-06T15:35:07.384Z,9.50
2019-03-06T15:39:23.146Z,8.47
2019-03-06T15:43:26.518Z,8.20
2019-03-06T15:47:33.654Z,5.80
2019-03-06T15:51:35.411Z,4.10
2019-03-06T15:55:38.766Z,6.20
2019-03-06T15:59:42.142Z,5.90
2019-03-06T16:03:45.434Z,5.93
2019-03-06T16:07:49.566Z,7.10
2019-03-06T16:11:53.008Z,4.20
2019-03-06T16:15:56.754Z,3.43
2019-03-06T16:20:00.079Z,6.10
2019-03-06T16:24:03.548Z,8.77
2019-03-06T16:28:07.051Z,4.37
2019-03-06T16:32:11.124Z,6.00
2019-03-06T16:36:14.465Z,4.83
2019-03-06T16:40:18.340Z,6.77
2019-03-06T16:44:22.041Z,5.83
2019-03-06T16:48:25.343Z,4.30
2019-03-06T16:52:28.670Z,6.73
2019-03-06T16:56:32.110Z,4.40
2019-03-06T17:00:36.232Z,5.40
2019-03-06T17:04:40.992Z,11.27
2019-03-06T17:08:45.008Z,6.97
2019-03-06T17:12:48.527Z,3.53
2019-03-06T17:16:52.120Z,6.40
2019-03-06T17:20:56.007Z,12.57
2019-03-06T17:24:59.652Z,4.57
2019-03-06T17:29:08.899Z,4.10
2019-03-06T17:33:12.522Z,6.87
2019-03-06T17:37:15.931Z,5.40
2019-03-06T17:41:19.806Z,10.53
2019-03-06T17:45:23.899Z,3.50
2019-03-06T17:49:27.431Z,8.13
2019-03-06T17:53:33.725Z,5.60
2019-03-06T17:57:37.652Z,3.60
2019-03-06T18:01:41.216Z,9.47
2019-03-06T18:05:44.650Z,5.80
2019-03-06T18:09:48.119Z,6.43
2019-03-06T18:13:51.575Z,4.37
2019-03-06T18:17:55.373Z,5.40
2019-03-06T18:21:58.961Z,5.30
2019-03-06T18:26:02.475Z,5.70
2019-03-06T18:30:06.789Z,7.73
2019-03-06T18:34:10.834Z,8.13
2019-03-06T18:38:14.382Z,6.30
2019-03-06T18:42:18.356Z,8.10
2019-03-06T18:46:21.675Z,4.50
2019-03-06T18:50:25.957Z,7.07
2019-03-06T18:54:29.828Z,8.60
2019-03-06T18:58:33.370Z,5.63
2019-03-06T19:02:36.770Z,8.30
2019-03-06T19:06:41.412Z,5.93
2019-03-06T19:10:45.055Z,6.03
2019-03-06T19:14:48.501Z,6.03
2019-03-06T19:18:52.026Z,7.70
2019-03-06T19:22:55.432Z,5.47
2019-03-06T19:26:59.300Z,11.50
2019-03-06T19:31:04.123Z,7.47
2019-03-06T19:35:07.891Z,6.10
2019-03-06T19:39:13.295Z,7.23
2019-03-06T19:43:17.141Z,9.83
2019-03-06T19:47:20.684Z,7.93
2019-03-06T19:51:24.064Z,5.23
2019-03-06T19:55:27.487Z,8.30
2019-03-06T19:59:30.935Z,15.23
2019-03-06T20:03:34.946Z,7.67
2019-03-06T20:07:38.868Z,8.50
2019-03-06T20:11:42.673Z,8.70
2019-03-06T20:15:48.400Z,12.60
2019-03-06T20:19:51.782Z,8.27
2019-03-06T20:23:55.142Z,8.60
2019-03-06T20:27:59.057Z,8.77
2019-03-06T20:32:02.832Z,10.07
2019-03-06T20:36:06.664Z,7.30
2019-03-06T20:40:10.511Z,8.50
2019-03-06T20:44:14.393Z,7.70
2019-03-06T20:48:18.734Z,7.83
2019-03-06T20:52:22.165Z,8.67
2019-03-06T20:56:25.538Z,8.50
2019-03-06T21:00:29.444Z,8.70
2019-03-06T21:04:32.771Z,11.50
2019-03-06T21:08:36.490Z,9.27
2019-03-06T21:12:40.031Z,8.77
2019-03-06T21:16:43.631Z,10.30
2019-03-06T21:20:47.473Z,8.00
2019-03-06T21:24:51.897Z,7.37
2019-03-06T21:28:55.210Z,9.20
2019-03-06T21:32:59.360Z,9.87
2019-03-06T21:37:03.303Z,8.20
2019-03-06T21:41:07.318Z,7.77
2019-03-06T21:45:10.792Z,10.13
2019-03-06T21:49:14.612Z,8.70
2019-03-06T21:53:18.035Z,13.07
2019-03-06T21:57:21.577Z,12.90
2019-03-06T22:01:25.627Z,8.37
2019-03-06T22:05:28.912Z,14.57
2019-03-06T22:09:32.283Z,10.10
2019-03-06T22:13:35.630Z,10.03
2019-03-06T22:17:39.014Z,9.10
2019-03-06T22:21:42.449Z,11.10
2019-03-06T22:25:45.996Z,9.77
2019-03-06T22:29:49.418Z,11.40
2019-03-06T22:33:53.874Z,11.10
2019-03-06T22:37:57.455Z,12.20
2019-03-06T22:42:00.983Z,9.33
2019-03-06T22:46:04.339Z,10.20
2019-03-06T22:50:08.660Z,11.30
2019-03-06T22:54:12.031Z,10.07
2019-03-06T22:58:15.442Z,9.73
2019-03-06T23:02:19.570Z,9.90
2019-03-06T23:06:23.002Z,10.37
2019-03-06T23:10:26.661Z,9.33
2019-03-06T23:14:30.615Z,8.43
2019-03-06T23:18:34.016Z,9.53
2019-03-06T23:22:37.455Z,12.00
2019-03-06T23:26:43.182Z,9.50
2019-03-06T23:30:46.362Z,10.23
2019-03-06T23:34:50.197Z,9.13
2019-03-06T23:38:54.067Z,11.53
2019-03-06T23:42:57.502Z,10.80
2019-03-06T23:47:01.003Z,10.30
2019-03-06T23:51:10.801Z,9.43
2019-03-06T23:55:14.283Z,10.30
2019-03-06T23:59:17.623Z,10.70
